Time;durP1;ratioP1;P1;durP2;ratioP2;P2;SDS_P1;SDS_P2;PMS_P1;PMS_P2;Temp;Humidity;BMP_temperature;BMP_pressure;BME280_temperature;BME280_humidity;BME280_pressure;Samples;Min_cycle;Max_cycle;Signal;HPM_P1;HPM_P2
2021/12/20 00:01:26;;;;;;;;;;;-1.40;99.90;;;;;;4393483;32;20379;-67
2021/12/20 00:03:52;;;;;;;;;;;-1.40;99.90;;;;;;4393180;32;20406;-67
2021/12/20 00:06:19;;;;;;;;;;;-1.50;99.90;;;;;;4405542;32;20420;-66
2021/12/20 00:08:45;;;;;;;;;;;-1.40;99.90;;;;;;4405734;32;19973;-67
2021/12/20 00:11:11;;;;;;;;;;;-1.40;99.90;;;;;;4419671;32;19997;-67
2021/12/20 00:13:37;;;;;;;;;;;-1.40;99.90;;;;;;4392899;32;19993;-67
2021/12/20 00:16:03;;;;;;;;;;;-1.40;99.90;;;;;;4393329;32;19997;-67
2021/12/20 00:18:30;;;;;;;;;;;-1.30;99.90;;;;;;4405116;32;19980;-67
2021/12/20 00:20:56;;;;;;;;;;;-1.30;99.90;;;;;;4405748;32;20359;-67
2021/12/20 00:23:22;;;;;;;;;;;-1.30;99.90;;;;;;4405583;32;19989;-66
2021/12/20 00:25:48;;;;;;;;;;;-1.30;99.90;;;;;;4392825;32;20394;-68
2021/12/20 00:28:18;;;;;;;;;;;-1.30;99.90;;;;;;4405950;32;19988;-67
2021/12/20 00:30:45;;;;;;;;;;;-1.30;99.90;;;;;;4380381;32;20053;-67
2021/12/20 00:33:11;;;;;;;;;;;-1.20;99.90;;;;;;4405382;32;20049;-68
2021/12/20 00:35:37;;;;;;;;;;;-1.30;99.90;;;;;;4397561;32;19995;-68
2021/12/20 00:40:49;;;;;;;;;;;-1.10;99.90;;;;;;4407304;32;20073;-69
2021/12/20 00:43:15;;;;;;;;;;;-1.20;99.90;;;;;;4394084;32;19996;-69
2021/12/20 00:45:42;;;;;;;;;;;-1.20;99.90;;;;;;4394406;32;19992;-68
2021/12/20 00:48:08;;;;;;;;;;;-1.20;99.90;;;;;;4403343;32;19973;-67
2021/12/20 00:50:35;;;;;;;;;;;-1.20;99.90;;;;;;4382270;32;19985;-68
2021/12/20 00:53:02;;;;;;;;;;;-1.10;99.90;;;;;;4394972;32;19996;-69
2021/12/20 00:55:29;;;;;;;;;;;-1.00;99.90;;;;;;4394871;32;20560;-68
2021/12/20 00:57:57;;;;;;;;;;;-1.00;99.90;;;;;;4395050;32;20352;-68
2021/12/20 01:00:30;;;;;;;;;;;-1.00;99.90;;;;;;4394839;32;19977;-67
2021/12/20 01:02:57;;;;;;;;;;;-1.10;99.90;;;;;;4394998;32;19978;-68
2021/12/20 01:05:25;;;;;;;;;;;-1.00;99.90;;;;;;4395321;32;20000;-67
2021/12/20 01:07:54;;;;;;;;;;;-1.00;99.90;;;;;;4395111;32;20371;-67
2021/12/20 01:10:20;;;;;;;;;;;-1.00;99.90;;;;;;4411221;32;19993;-68
2021/12/20 01:12:49;;;;;;;;;;;-1.00;99.90;;;;;;4394958;32;20421;-67
2021/12/20 01:15:27;;;;;;;;;;;-1.00;99.90;;;;;;4394325;32;19990;-67
2021/12/20 01:17:53;;;;;;;;;;;-1.00;99.90;;;;;;4369855;32;19962;-68
2021/12/20 01:20:20;;;;;;;;;;;-1.00;99.90;;;;;;4382375;32;20018;-67
2021/12/20 01:22:48;;;;;;;;;;;-0.90;99.90;;;;;;4408506;32;19973;-67
2021/12/20 01:25:15;;;;;;;;;;;-0.90;99.90;;;;;;4394861;32;20023;-68
2021/12/20 01:30:23;;;;;;;;;;;-0.90;99.90;;;;;;3811321;37;19950;-68
2021/12/20 01:32:51;;;;;;;;;;;-0.90;99.90;;;;;;4388740;32;20033;-66
2021/12/20 01:35:18;;;;;;;;;;;-0.90;99.90;;;;;;4388094;32;19989;-68
2021/12/20 01:37:44;;;;;;;;;;;-0.90;99.90;;;;;;4389025;32;19978;-66
2021/12/20 01:40:13;;;;;;;;;;;-0.90;99.90;;;;;;4388254;32;19986;-68
2021/12/20 01:42:39;;;;;;;;;;;-0.90;99.90;;;;;;4389670;32;20397;-68
2021/12/20 01:45:11;;;;;;;;;;;-0.80;99.90;;;;;;4375507;32;19997;-66
2021/12/20 01:47:42;;;;;;;;;;;-0.80;99.90;;;;;;4375702;32;19982;-68
2021/12/20 01:50:17;;;;;;;;;;;-0.80;99.90;;;;;;4389743;32;20389;-67
2021/12/20 01:52:44;;;;;;;;;;;-0.80;99.90;;;;;;4389647;32;19973;-67
2021/12/20 01:55:13;;;;;;;;;;;-0.80;99.90;;;;;;4387952;32;20360;-67
2021/12/20 01:57:40;;;;;;;;;;;-0.80;99.90;;;;;;4388031;32;19966;-67
2021/12/20 02:00:18;;;;;;;;;;;-0.80;99.90;;;;;;4388194;32;19994;-68
2021/12/20 02:02:45;;;;;;;;;;;-0.70;99.90;;;;;;4389574;32;19985;-68
2021/12/20 02:05:26;;;;;;;;;;;-0.70;99.90;;;;;;4389274;32;20416;-67
2021/12/20 02:08:03;;;;;;;;;;;-0.70;99.90;;;;;;4388535;32;19974;-68
2021/12/20 02:10:31;;;;;;;;;;;-0.70;99.90;;;;;;4377165;32;19981;-67
2021/12/20 02:12:57;;;;;;;;;;;-0.60;99.90;;;;;;4396640;32;19993;-67
2021/12/20 02:15:23;;;;;;;;;;;-0.60;99.90;;;;;;4375205;32;19994;-67
2021/12/20 02:17:49;;;;;;;;;;;-0.60;99.90;;;;;;4389430;32;19978;-67
2021/12/20 02:20:27;;;;;;;;;;;-0.60;99.90;;;;;;4362367;32;20482;-67
2021/12/20 02:22:55;;;;;;;;;;;-0.60;99.90;;;;;;4387269;32;19978;-67
2021/12/20 02:25:21;;;;;;;;;;;-0.60;99.90;;;;;;4388036;32;20422;-68
2021/12/20 02:27:47;;;;;;;;;;;-0.50;99.90;;;;;;4387363;32;19986;-67
2021/12/20 02:30:37;;;;;;;;;;;-0.60;99.90;;;;;;4374641;32;20398;-68
2021/12/20 02:36:58;;;;;;;;;;;-0.50;99.90;;;;;;4376714;32;20451;-67
2021/12/20 02:38:40;;;;;;;;;;;-0.50;99.90;;;;;;4388159;32;19966;-65
2021/12/20 02:41:27;;;;;;;;;;;-0.50;99.90;;;;;;4367575;32;19978;-68
2021/12/20 02:43:56;;;;;;;;;;;-0.40;99.90;;;;;;4377121;32;20394;-68
2021/12/20 02:46:33;;;;;;;;;;;-0.40;99.90;;;;;;4364808;32;20458;-67
2021/12/20 02:48:59;;;;;;;;;;;-0.50;99.90;;;;;;4377193;32;20405;-68
2021/12/20 02:51:27;;;;;;;;;;;-0.40;99.90;;;;;;4352943;32;20422;-68
2021/12/20 02:53:54;;;;;;;;;;;-0.40;99.90;;;;;;4377182;32;20061;-69
2021/12/20 02:56:20;;;;;;;;;;;-0.40;99.90;;;;;;4364750;32;20055;-66
2021/12/20 02:58:47;;;;;;;;;;;-0.40;99.90;;;;;;4378558;32;19977;-67
2021/12/20 03:01:13;;;;;;;;;;;-0.40;99.90;;;;;;4376754;32;20072;-67
2021/12/20 03:03:40;;;;;;;;;;;-0.40;99.90;;;;;;4378460;32;20416;-68
2021/12/20 03:06:12;;;;;;;;;;;-0.30;99.90;;;;;;4365800;32;19971;-69
2021/12/20 03:08:40;;;;;;;;;;;-0.30;99.90;;;;;;4377116;32;19984;-68
2021/12/20 03:11:06;;;;;;;;;;;-0.30;99.90;;;;;;4377978;32;19970;-67
2021/12/20 03:13:32;;;;;;;;;;;-0.30;99.90;;;;;;4378508;32;20066;-68
2021/12/20 03:15:59;;;;;;;;;;;-0.30;99.90;;;;;;4377036;32;19976;-68
2021/12/20 03:18:25;;;;;;;;;;;-0.30;99.90;;;;;;4378155;32;19978;-69
2021/12/20 03:20:51;;;;;;;;;;;-0.30;99.90;;;;;;4364197;32;19982;-68
2021/12/20 03:23:17;;;;;;;;;;;-0.20;99.90;;;;;;4378072;32;19986;-68
2021/12/20 03:25:44;;;;;;;;;;;-0.20;99.90;;;;;;4376772;32;19981;-66
2021/12/20 03:28:10;;;;;;;;;;;-0.20;99.90;;;;;;4376215;32;20400;-67
2021/12/20 03:30:36;;;;;;;;;;;-0.20;99.90;;;;;;4379598;32;19981;-68
2021/12/20 03:33:02;;;;;;;;;;;-0.10;99.90;;;;;;4379449;32;20074;-67
2021/12/20 03:35:28;;;;;;;;;;;-0.10;99.90;;;;;;4354245;32;20360;-68
2021/12/20 03:37:55;;;;;;;;;;;-0.10;99.90;;;;;;4367105;32;19993;-68
2021/12/20 03:40:21;;;;;;;;;;;-0.10;99.90;;;;;;4367348;32;19993;-67
2021/12/20 03:42:47;;;;;;;;;;;-0.10;99.90;;;;;;4392903;32;20008;-68
2021/12/20 03:45:15;;;;;;;;;;;0.00;99.90;;;;;;4382603;32;19982;-69
2021/12/20 03:47:42;;;;;;;;;;;0.00;99.90;;;;;;4383448;32;20069;-67
2021/12/20 03:50:09;;;;;;;;;;;0.00;99.90;;;;;;4392990;32;20359;-68
2021/12/20 03:52:38;;;;;;;;;;;0.00;99.90;;;;;;4365628;32;19961;-68
2021/12/20 03:55:12;;;;;;;;;;;0.00;99.90;;;;;;4379352;32;20074;-68
2021/12/20 03:57:38;;;;;;;;;;;0.10;99.90;;;;;;4379573;32;19973;-66
2021/12/20 04:00:10;;;;;;;;;;;0.10;99.90;;;;;;4392865;32;20436;-67
2021/12/20 04:02:41;;;;;;;;;;;0.10;99.90;;;;;;4392693;32;19982;-68
2021/12/20 04:05:09;;;;;;;;;;;0.10;99.90;;;;;;4379270;32;20638;-68
2021/12/20 04:07:35;;;;;;;;;;;0.10;99.90;;;;;;4366174;32;19973;-68
2021/12/20 04:10:02;;;;;;;;;;;0.20;99.90;;;;;;4392374;32;20470;-67
2021/12/20 04:12:28;;;;;;;;;;;0.10;99.90;;;;;;4366281;32;19977;-67
2021/12/20 04:14:54;;;;;;;;;;;0.10;99.90;;;;;;4392461;32;19993;-69
2021/12/20 04:17:20;;;;;;;;;;;0.10;99.90;;;;;;4378457;32;19974;-68
2021/12/20 04:19:47;;;;;;;;;;;0.20;99.90;;;;;;4378819;32;19989;-68
2021/12/20 04:22:15;;;;;;;;;;;0.20;99.90;;;;;;4392491;32;19989;-68
2021/12/20 04:24:42;;;;;;;;;;;0.20;99.90;;;;;;4378613;32;19989;-68
2021/12/20 04:27:08;;;;;;;;;;;0.20;99.90;;;;;;4365874;32;20458;-67
2021/12/20 04:29:34;;;;;;;;;;;0.20;99.90;;;;;;4377766;32;19989;-68
2021/12/20 04:32:00;;;;;;;;;;;0.20;99.90;;;;;;4378625;32;20396;-68
2021/12/20 04:34:26;;;;;;;;;;;0.30;99.90;;;;;;4365677;32;20390;-68
2021/12/20 04:36:53;;;;;;;;;;;0.30;99.90;;;;;;4378230;32;19985;-67
2021/12/20 04:39:24;;;;;;;;;;;0.30;99.90;;;;;;4392104;32;19993;-68
2021/12/20 04:41:50;;;;;;;;;;;0.30;99.90;;;;;;4378429;32;20005;-68
2021/12/20 04:44:16;;;;;;;;;;;0.40;99.90;;;;;;4378399;32;20019;-67
2021/12/20 04:46:42;;;;;;;;;;;0.30;99.90;;;;;;4391680;32;20429;-66
2021/12/20 04:49:08;;;;;;;;;;;0.30;99.90;;;;;;4366150;32;19981;-68
2021/12/20 04:51:35;;;;;;;;;;;0.30;99.90;;;;;;4391867;32;20356;-68
2021/12/20 04:54:02;;;;;;;;;;;0.40;99.90;;;;;;4365186;32;20445;-69
2021/12/20 04:56:28;;;;;;;;;;;0.40;99.90;;;;;;4378104;32;20480;-68
2021/12/20 04:58:54;;;;;;;;;;;0.40;99.90;;;;;;4365263;32;19990;-69
2021/12/20 05:01:21;;;;;;;;;;;0.40;99.90;;;;;;4391956;32;20003;-68
2021/12/20 05:03:49;;;;;;;;;;;0.40;99.90;;;;;;4366110;32;19988;-69
2021/12/20 05:06:15;;;;;;;;;;;0.30;99.90;;;;;;4377847;32;19977;-67
2021/12/20 05:08:50;;;;;;;;;;;0.40;99.90;;;;;;4378020;32;19988;-67
2021/12/20 05:11:17;;;;;;;;;;;0.30;99.90;;;;;;4391837;32;19986;-68
2021/12/20 05:13:43;;;;;;;;;;;0.30;99.90;;;;;;4377778;32;19981;-68
2021/12/20 05:16:10;;;;;;;;;;;0.40;99.90;;;;;;4391770;32;20008;-68
2021/12/20 05:18:36;;;;;;;;;;;0.40;99.90;;;;;;4381316;32;19961;-68
2021/12/20 05:21:02;;;;;;;;;;;0.40;99.90;;;;;;4385912;32;19977;-67
2021/12/20 05:23:28;;;;;;;;;;;0.40;99.90;;;;;;4352471;32;20384;-67
2021/12/20 05:25:55;;;;;;;;;;;0.40;99.90;;;;;;4391870;32;19993;-68
2021/12/20 05:28:22;;;;;;;;;;;0.40;99.90;;;;;;4365157;32;20358;-68
2021/12/20 05:30:50;;;;;;;;;;;0.50;99.90;;;;;;4377987;32;20415;-68
2021/12/20 05:33:17;;;;;;;;;;;0.50;99.90;;;;;;4378378;32;19988;-68
2021/12/20 05:35:43;;;;;;;;;;;0.50;99.90;;;;;;4392337;32;20144;-68
2021/12/20 05:38:09;;;;;;;;;;;0.50;99.90;;;;;;4391759;32;19988;-68
2021/12/20 05:40:35;;;;;;;;;;;0.50;99.90;;;;;;4391345;32;19981;-68
2021/12/20 05:43:03;;;;;;;;;;;0.50;99.90;;;;;;4377598;32;20009;-68
2021/12/20 05:45:29;;;;;;;;;;;0.50;99.90;;;;;;4391650;32;19977;-67
2021/12/20 05:47:55;;;;;;;;;;;0.50;99.90;;;;;;4377900;32;20001;-68
2021/12/20 05:50:23;;;;;;;;;;;0.60;99.90;;;;;;4391341;32;20416;-68
2021/12/20 05:52:50;;;;;;;;;;;0.60;99.90;;;;;;4356931;32;20049;-70
2021/12/20 05:55:16;;;;;;;;;;;0.60;99.90;;;;;;4349332;32;19970;-69
2021/12/20 05:57:43;;;;;;;;;;;0.60;99.90;;;;;;4377910;32;20363;-71
2021/12/20 06:00:12;;;;;;;;;;;0.60;99.90;;;;;;4367042;32;19986;-66
2021/12/20 06:02:39;;;;;;;;;;;0.60;99.90;;;;;;4364744;32;20075;-69
2021/12/20 06:05:06;;;;;;;;;;;0.60;99.90;;;;;;4357239;32;20004;-67
2021/12/20 06:07:33;;;;;;;;;;;0.70;99.90;;;;;;4349862;32;20041;-69
2021/12/20 06:09:59;;;;;;;;;;;0.70;99.90;;;;;;4376084;32;20028;-68
2021/12/20 06:12:25;;;;;;;;;;;0.70;99.90;;;;;;4368160;32;20008;-69
2021/12/20 06:14:52;;;;;;;;;;;0.70;99.90;;;;;;4379001;32;19973;-71
2021/12/20 06:17:18;;;;;;;;;;;0.70;99.90;;;;;;4388570;32;19992;-68
2021/12/20 06:19:44;;;;;;;;;;;0.70;99.90;;;;;;4366238;32;19978;-70
2021/12/20 06:22:10;;;;;;;;;;;0.70;99.90;;;;;;4391669;32;19981;-70
2021/12/20 06:24:38;;;;;;;;;;;0.70;99.90;;;;;;4379281;32;19966;-71
2021/12/20 06:27:04;;;;;;;;;;;0.70;99.90;;;;;;4365391;32;20098;-71
2021/12/20 06:29:30;;;;;;;;;;;0.70;99.90;;;;;;4357856;32;19970;-68
2021/12/20 06:31:57;;;;;;;;;;;0.80;99.90;;;;;;4385432;32;20385;-71
2021/12/20 06:34:23;;;;;;;;;;;0.80;99.90;;;;;;4365862;32;20405;-69
2021/12/20 06:36:49;;;;;;;;;;;0.80;99.90;;;;;;4377468;32;20001;-69
2021/12/20 06:39:16;;;;;;;;;;;0.90;99.90;;;;;;4371964;32;19978;-68
2021/12/20 06:41:43;;;;;;;;;;;0.90;99.90;;;;;;4373017;32;19997;-67
2021/12/20 06:44:09;;;;;;;;;;;0.90;99.90;;;;;;4372791;32;19959;-69
2021/12/20 06:46:38;;;;;;;;;;;0.90;99.90;;;;;;4377073;32;19966;-66
2021/12/20 06:49:09;;;;;;;;;;;0.90;99.90;;;;;;4371323;32;20411;-67
2021/12/20 06:51:42;;;;;;;;;;;1.00;99.90;;;;;;4365577;32;19973;-68
2021/12/20 06:54:09;;;;;;;;;;;1.00;99.90;;;;;;4375290;32;19966;-67
2021/12/20 06:56:35;;;;;;;;;;;1.00;99.90;;;;;;4362018;32;19975;-66
2021/12/20 06:59:02;;;;;;;;;;;1.00;99.90;;;;;;4370142;32;19966;-66
2021/12/20 07:01:29;;;;;;;;;;;1.00;99.90;;;;;;4346891;32;20039;-70
2021/12/20 07:03:56;;;;;;;;;;;1.00;99.90;;;;;;4380505;32;19977;-69
2021/12/20 07:06:23;;;;;;;;;;;1.00;99.90;;;;;;4349387;32;20461;-68
2021/12/20 07:08:49;;;;;;;;;;;1.00;99.90;;;;;;4355760;32;20059;-68
2021/12/20 07:11:15;;;;;;;;;;;1.00;99.90;;;;;;4372594;32;20017;-69
2021/12/20 07:13:42;;;;;;;;;;;0.90;99.90;;;;;;4368842;32;19974;-70
2021/12/20 07:16:08;;;;;;;;;;;1.00;99.90;;;;;;4359460;32;20016;-67
2021/12/20 07:18:35;;;;;;;;;;;1.00;99.90;;;;;;4370381;32;19993;-68
2021/12/20 07:21:02;;;;;;;;;;;1.00;99.90;;;;;;4352801;32;19989;-68
2021/12/20 07:23:28;;;;;;;;;;;1.00;99.90;;;;;;4354049;32;19978;-68
2021/12/20 07:25:54;;;;;;;;;;;1.00;99.90;;;;;;4385581;32;20017;-69
2021/12/20 07:28:21;;;;;;;;;;;1.00;99.90;;;;;;4368274;32;19982;-71
2021/12/20 07:30:48;;;;;;;;;;;1.00;99.90;;;;;;4358119;32;20426;-73
2021/12/20 07:33:16;;;;;;;;;;;1.00;99.90;;;;;;4363345;32;20842;-72
2021/12/20 07:35:44;;;;;;;;;;;1.00;99.90;;;;;;4364583;32;19974;-67
2021/12/20 07:38:14;;;;;;;;;;;1.10;99.90;;;;;;4365850;32;20066;-69
2021/12/20 07:40:46;;;;;;;;;;;1.10;99.90;;;;;;4354166;32;19966;-69
2021/12/20 07:43:14;;;;;;;;;;;1.10;99.90;;;;;;4363388;32;20072;-69
2021/12/20 07:45:41;;;;;;;;;;;1.20;99.90;;;;;;4362638;32;19974;-70
2021/12/20 07:48:08;;;;;;;;;;;1.20;99.90;;;;;;4360086;32;20000;-72
2021/12/20 07:50:35;;;;;;;;;;;1.20;99.90;;;;;;4345264;32;19977;-71
2021/12/20 07:53:02;;;;;;;;;;;1.20;99.90;;;;;;4368460;32;19978;-71
2021/12/20 07:55:28;;;;;;;;;;;1.30;99.90;;;;;;4386690;32;20070;-72
2021/12/20 07:57:54;;;;;;;;;;;1.30;99.90;;;;;;4368967;32;20405;-73
2021/12/20 08:00:21;;;;;;;;;;;1.30;99.90;;;;;;4370220;32;19977;-70
2021/12/20 08:02:47;;;;;;;;;;;1.30;99.90;;;;;;4379062;32;19976;-71
2021/12/20 08:05:15;;;;;;;;;;;1.20;99.90;;;;;;4368315;32;20379;-70
2021/12/20 08:07:41;;;;;;;;;;;1.30;99.90;;;;;;4372630;32;20384;-70
2021/12/20 08:10:09;;;;;;;;;;;1.30;99.90;;;;;;4359393;32;19971;-69
2021/12/20 08:12:35;;;;;;;;;;;1.30;99.90;;;;;;4362776;32;20074;-70
2021/12/20 08:15:02;;;;;;;;;;;1.30;99.90;;;;;;4381125;32;19974;-73
2021/12/20 08:17:28;;;;;;;;;;;1.30;99.90;;;;;;4357433;32;19973;-67
2021/12/20 08:19:55;;;;;;;;;;;1.30;99.90;;;;;;4361689;32;20045;-69
2021/12/20 08:22:25;;;;;;;;;;;1.30;99.90;;;;;;4367735;32;19989;-69
2021/12/20 08:24:52;;;;;;;;;;;1.30;99.90;;;;;;4371039;32;19989;-72
2021/12/20 08:27:19;;;;;;;;;;;1.30;99.90;;;;;;4355109;32;19962;-68
2021/12/20 08:29:45;;;;;;;;;;;1.30;99.90;;;;;;4390583;32;19999;-69
2021/12/20 08:32:11;;;;;;;;;;;1.30;99.90;;;;;;4364576;32;20379;-69
2021/12/20 08:34:38;;;;;;;;;;;1.30;99.90;;;;;;4366868;32;19970;-70
2021/12/20 08:37:04;;;;;;;;;;;1.30;99.90;;;;;;4357309;32;20087;-71
2021/12/20 08:39:31;;;;;;;;;;;1.40;99.90;;;;;;4364151;32;20486;-70
2021/12/20 08:41:58;;;;;;;;;;;1.30;99.90;;;;;;4354436;32;19969;-71
2021/12/20 08:44:25;;;;;;;;;;;1.40;99.90;;;;;;4371977;32;20066;-69
2021/12/20 08:46:52;;;;;;;;;;;1.40;99.90;;;;;;4371146;32;20000;-71
2021/12/20 08:49:19;;;;;;;;;;;1.40;99.90;;;;;;4380996;32;19997;-71
2021/12/20 08:51:45;;;;;;;;;;;1.40;99.90;;;;;;4342500;32;19981;-70
2021/12/20 08:54:13;;;;;;;;;;;1.40;99.90;;;;;;4365525;32;20042;-71
2021/12/20 08:56:39;;;;;;;;;;;1.40;99.90;;;;;;4367317;32;20017;-70
2021/12/20 08:59:06;;;;;;;;;;;1.40;99.90;;;;;;4352234;32;19978;-68
2021/12/20 09:01:32;;;;;;;;;;;1.40;99.90;;;;;;4364777;32;20020;-70
2021/12/20 09:03:59;;;;;;;;;;;1.40;99.90;;;;;;4359833;32;20083;-70
2021/12/20 09:06:26;;;;;;;;;;;1.40;99.90;;;;;;4367587;32;19966;-70
2021/12/20 09:08:56;;;;;;;;;;;1.40;99.90;;;;;;4351407;32;20381;-69
2021/12/20 09:11:23;;;;;;;;;;;1.50;99.90;;;;;;4373996;32;19994;-70
2021/12/20 09:13:50;;;;;;;;;;;1.50;99.90;;;;;;4368400;32;20042;-68
2021/12/20 09:16:16;;;;;;;;;;;1.50;99.90;;;;;;4355948;32;19982;-69
2021/12/20 09:18:43;;;;;;;;;;;1.50;99.90;;;;;;4388476;32;19981;-69
2021/12/20 09:21:10;;;;;;;;;;;1.50;99.90;;;;;;4379267;32;20007;-70
2021/12/20 09:23:38;;;;;;;;;;;1.50;99.90;;;;;;4358511;32;20430;-69
2021/12/20 09:26:05;;;;;;;;;;;1.50;99.90;;;;;;4359084;32;20017;-70
2021/12/20 09:28:31;;;;;;;;;;;1.50;99.90;;;;;;4371586;32;20441;-70
2021/12/20 09:30:58;;;;;;;;;;;1.50;99.90;;;;;;4360827;32;19969;-67
2021/12/20 09:33:25;;;;;;;;;;;1.50;99.90;;;;;;4359414;32;20069;-67
2021/12/20 09:35:53;;;;;;;;;;;1.60;99.90;;;;;;4359821;32;19973;-70
2021/12/20 09:38:20;;;;;;;;;;;1.50;99.90;;;;;;4357850;32;20001;-69
2021/12/20 09:41:13;;;;;;;;;;;1.70;99.90;;;;;;4363193;32;20055;-67
2021/12/20 09:43:42;;;;;;;;;;;1.60;99.90;;;;;;4368626;32;20345;-69
2021/12/20 09:46:09;;;;;;;;;;;1.80;99.90;;;;;;4354826;32;20063;-68
2021/12/20 09:48:35;;;;;;;;;;;1.80;99.90;;;;;;4373520;32;20013;-67
2021/12/20 09:51:03;;;;;;;;;;;1.80;99.90;;;;;;4377379;32;20052;-70
2021/12/20 09:53:29;;;;;;;;;;;1.70;99.90;;;;;;4348933;32;20388;-68
2021/12/20 09:55:57;;;;;;;;;;;1.80;99.90;;;;;;4373655;32;19970;-67
2021/12/20 09:58:24;;;;;;;;;;;1.70;99.90;;;;;;4365390;32;19971;-69
2021/12/20 10:00:51;;;;;;;;;;;1.70;99.90;;;;;;4371337;32;20023;-66
2021/12/20 10:03:21;;;;;;;;;;;1.80;99.90;;;;;;4371567;32;19986;-67
2021/12/20 10:05:48;;;;;;;;;;;1.70;99.90;;;;;;4357542;32;20003;-70
2021/12/20 10:08:20;;;;;;;;;;;1.70;99.90;;;;;;4357435;32;20345;-70
2021/12/20 10:10:48;;;;;;;;;;;3.70;99.90;;;;;;4348600;32;19990;-67
2021/12/20 10:13:31;;;;;;;;;;;3.70;99.90;;;;;;4371636;32;20047;-65
2021/12/20 10:15:58;;;;;;;;;;;3.70;99.90;;;;;;4370679;32;20049;-69
2021/12/20 10:18:26;;;;;;;;;;;3.70;99.90;;;;;;4353650;32;20371;-69
2021/12/20 10:20:57;;;;;;;;;;;3.70;99.90;;;;;;4370153;32;19974;-68
2021/12/20 10:23:29;;;;;;;;;;;3.60;99.90;;;;;;4383106;32;20066;-68
2021/12/20 10:26:01;;;;;;;;;;;3.50;99.90;;;;;;4371829;32;19970;-70
2021/12/20 10:28:35;;;;;;;;;;;3.30;99.90;;;;;;4372982;32;20416;-70
2021/12/20 10:31:07;;;;;;;;;;;3.40;99.90;;;;;;4354422;32;19970;-69
2021/12/20 10:33:34;;;;;;;;;;;3.20;99.90;;;;;;4340386;32;20051;-68
2021/12/20 10:36:12;;;;;;;;;;;3.10;99.90;;;;;;4353432;32;20070;-69
2021/12/20 10:38:41;;;;;;;;;;;3.10;99.90;;;;;;4365343;32;19969;-66
2021/12/20 10:41:17;;;;;;;;;;;3.00;99.90;;;;;;4378790;32;19973;-66
2021/12/20 10:43:54;;;;;;;;;;;3.00;99.90;;;;;;4365473;32;19985;-68
2021/12/20 10:46:22;;;;;;;;;;;3.20;99.90;;;;;;4353032;32;20066;-68
2021/12/20 10:48:58;;;;;;;;;;;3.00;99.90;;;;;;4348018;32;20083;-69
2021/12/20 10:51:27;;;;;;;;;;;3.00;99.90;;;;;;4378580;32;20092;-68
2021/12/20 10:54:01;;;;;;;;;;;3.00;99.90;;;;;;4364848;32;20003;-67
2021/12/20 10:56:29;;;;;;;;;;;3.00;99.90;;;;;;4378654;32;19981;-67
2021/12/20 10:58:56;;;;;;;;;;;2.90;99.90;;;;;;4365009;32;20372;-67
2021/12/20 11:04:22;;;;;;;;;;;2.70;99.90;;;;;;4376960;32;19978;-67
2021/12/20 11:09:23;;;;;;;;;;;2.50;99.90;;;;;;4365705;32;19982;-68
2021/12/20 11:11:52;;;;;;;;;;;2.40;99.90;;;;;;4351889;32;19982;-67
2021/12/20 11:14:21;;;;;;;;;;;2.30;99.90;;;;;;4364718;32;20431;-67
2021/12/20 11:16:51;;;;;;;;;;;2.30;99.90;;;;;;4352072;32;19994;-66
2021/12/20 11:19:29;;;;;;;;;;;2.20;99.90;;;;;;4365297;32;19986;-70
2021/12/20 11:22:17;;;;;;;;;;;2.30;99.90;;;;;;4366392;32;20051;-68
2021/12/20 11:24:52;;;;;;;;;;;2.30;99.90;;;;;;4379997;32;20051;-64
2021/12/20 11:27:26;;;;;;;;;;;2.20;99.90;;;;;;4393469;32;19985;-66
2021/12/20 11:32:34;;;;;;;;;;;2.00;99.90;;;;;;3857343;37;19978;-65
2021/12/20 11:35:00;;;;;;;;;;;2.00;99.90;;;;;;4415522;32;20012;-66
2021/12/20 11:37:28;;;;;;;;;;;2.00;99.90;;;;;;4409752;32;19988;-65
2021/12/20 11:39:56;;;;;;;;;;;1.90;99.90;;;;;;4410506;32;19993;-72
2021/12/20 11:42:23;;;;;;;;;;;1.90;99.90;;;;;;4390347;32;19977;-66
2021/12/20 11:44:54;;;;;;;;;;;1.90;99.90;;;;;;4395307;32;19965;-67
2021/12/20 11:47:52;;;;;;;;;;;1.80;99.90;;;;;;4404435;32;19981;-66
2021/12/20 11:50:22;;;;;;;;;;;1.80;99.90;;;;;;4369619;32;20109;-68
2021/12/20 11:52:52;;;;;;;;;;;1.80;99.90;;;;;;4384504;32;20413;-69
2021/12/20 11:55:25;;;;;;;;;;;1.90;99.90;;;;;;4390454;32;20002;-69
2021/12/20 11:58:02;;;;;;;;;;;;;;;;;;4387260;32;20017;-68
2021/12/20 12:00:33;;;;;;;;;;;;;;;;;;4368631;32;20082;-69
2021/12/20 12:03:05;;;;;;;;;;;;;;;;;;4388055;32;19996;-69
2021/12/20 12:05:35;;;;;;;;;;;;;;;;;;4406755;32;19976;-69
2021/12/20 12:08:19;;;;;;;;;;;;;;;;;;4403669;32;19992;-69
2021/12/20 12:10:46;;;;;;;;;;;;;;;;;;4404023;32;19982;-70
2021/12/20 12:13:17;;;;;;;;;;;;;;;;;;4379723;32;20383;-70
2021/12/20 12:15:52;;;;;;;;;;;;;;;;;;4399007;32;19977;-71
2021/12/20 12:18:18;;;;;;;;;;;;;;;;;;4385262;32;19989;-69
2021/12/20 12:20:53;;;;;;;;;;;;;;;;;;4399313;32;20394;-69
2021/12/20 12:23:23;;;;;;;;;;;;;;;;;;4405314;32;20379;-70
2021/12/20 12:25:50;;;;;;;;;;;;;;;;;;4405648;32;20483;-70
2021/12/20 12:28:21;;;;;;;;;;;;;;;;;;4395222;32;19993;-70
2021/12/20 12:30:58;;;;;;;;;;;;;;;;;;4374264;32;20359;-69
2021/12/20 12:33:26;;;;;;;;;;;;;;;;;;4387417;32;19989;-68
2021/12/20 12:35:53;;;;;;;;;;;;;;;;;;4386256;32;20409;-70
2021/12/20 12:38:25;;;;;;;;;;;;;;;;;;4374607;32;20054;-67
2021/12/20 12:40:53;;;;;;;;;;;;;;;;;;4361606;32;20416;-69
2021/12/20 12:43:21;;;;;;;;;;;;;;;;;;4366001;32;20400;-68
2021/12/20 12:45:48;;;;;;;;;;;;;;;;;;4355990;32;19974;-71
2021/12/20 12:48:38;;;;;;;;;;;;;;;;;;4364354;32;20035;-67
2021/12/20 12:51:20;;;;;;;;;;;;;;;;;;4362969;32;19982;-67
2021/12/20 12:53:47;;;;;;;;;;;;;;;;;;4367490;32;19993;-65
2021/12/20 12:56:28;;;;;;;;;;;;;;;;;;3834299;37;19954;-65
2021/12/20 12:59:16;;;;;;;;;;;;;;;;;;4385596;32;19997;-66
2021/12/20 13:01:49;;;;;;;;;;;;;;;;;;4408609;32;19993;-67
2021/12/20 13:04:15;;;;;;;;;;;;;;;;;;4410562;32;19977;-66
2021/12/20 13:06:42;;;;;;;;;;;;;;;;;;4390593;32;19988;-67
2021/12/20 13:09:08;;;;;;;;;;;;;;;;;;4396200;32;20041;-66
2021/12/20 13:11:35;;;;;;;;;;;;;;;;;;4384881;32;19973;-67
2021/12/20 13:14:11;;;;;;;;;;;;;;;;;;4400882;32;20049;-67
2021/12/20 13:16:43;;;;;;;;;;;;;;;;;;4382245;32;19981;-67
2021/12/20 13:19:13;;;;;;;;;;;;;;;;;;4389095;32;19977;-68
2021/12/20 13:21:54;;;;;;;;;;;;;;;;;;4370424;32;19967;-70
2021/12/20 13:24:21;;;;;;;;;;;;;;;;;;4377772;32;20064;-69
2021/12/20 13:26:47;;;;;;;;;;;;;;;;;;4388356;32;19993;-69
2021/12/20 13:29:16;;;;;;;;;;;;;;;;;;4370346;32;20372;-68
2021/12/20 13:31:43;;;;;;;;;;;;;;;;;;4376444;32;19976;-68
2021/12/20 13:34:14;;;;;;;;;;;;;;;;;;4374878;32;19977;-67
2021/12/20 13:36:50;;;;;;;;;;;;;;;;;;4377202;32;20368;-65
2021/12/20 13:39:17;;;;;;;;;;;;;;;;;;4376601;32;19973;-67
2021/12/20 13:41:44;;;;;;;;;;;;;;;;;;4375911;32;20079;-68
2021/12/20 13:44:12;;;;;;;;;;;;;;;;;;4385469;32;19977;-68
2021/12/20 13:49:25;;;;;;;;;;;;;;;;;;3841667;37;19959;-72
2021/12/20 13:51:57;;;;;;;;;;;;;;;;;;4369451;32;19984;-67
2021/12/20 13:54:39;;;;;;;;;;;;;;;;;;4377796;32;19965;-70
2021/12/20 13:57:17;;;;;;;;;;;;;;;;;;4400402;32;19973;-69
2021/12/20 13:59:48;;;;;;;;;;;;;;;;;;4383308;32;20088;-71
2021/12/20 14:02:15;;;;;;;;;;;;;;;;;;4378501;32;20499;-70
2021/12/20 14:04:43;;;;;;;;;;;;;;;;;;4366308;32;20061;-70
2021/12/20 14:07:32;;;;;;;;;;;;;;;;;;4383026;32;20547;-69
2021/12/20 14:10:12;;;;;;;;;;;;;;;;;;4409587;32;19977;-68
2021/12/20 14:12:39;;;;;;;;;;;;;;;;;;4394432;32;20084;-67
2021/12/20 14:15:13;;;;;;;;;;;;;;;;;;4395775;32;20604;-72
2021/12/20 14:17:49;;;;;;;;;;;;;;;;;;4365006;32;19970;-69
2021/12/20 14:20:15;;;;;;;;;;;;;;;;;;4403106;32;19988;-71
2021/12/20 14:22:52;;;;;;;;;;;;;;;;;;4397047;32;19985;-68
2021/12/20 14:25:18;;;;;;;;;;;;;;;;;;4387174;32;19996;-73
2021/12/20 14:27:57;;;;;;;;;;;;;;;;;;4402169;32;19993;-69
2021/12/20 14:30:24;;;;;;;;;;;;;;;;;;4376466;32;20364;-71
2021/12/20 14:32:51;;;;;;;;;;;;;;;;;;4391258;32;19973;-70
2021/12/20 14:35:31;;;;;;;;;;;;;;;;;;4386196;32;20025;-71
2021/12/20 14:37:58;;;;;;;;;;;;;;;;;;4388027;32;20410;-71
2021/12/20 14:40:38;;;;;;;;;;;;;;;;;;4373444;32;20009;-70
2021/12/20 14:43:07;;;;;;;;;;;;;;;;;;4374335;32;19981;-71
2021/12/20 14:45:34;;;;;;;;;;;;;;;;;;4365743;32;20058;-72
2021/12/20 14:48:18;;;;;;;;;;;;;;;;;;4390226;32;19990;-69
2021/12/20 14:50:46;;;;;;;;;;;;;;;;;;4374686;32;19981;-71
2021/12/20 14:53:17;;;;;;;;;;;;;;;;;;4381895;32;19969;-69
2021/12/20 14:55:43;;;;;;;;;;;;;;;;;;4387909;32;19993;-70
2021/12/20 14:58:10;;;;;;;;;;;;;;;;;;4388229;32;20438;-69
2021/12/20 15:00:37;;;;;;;;;;;;;;;;;;4382820;32;20074;-70
2021/12/20 15:03:03;;;;;;;;;;;;;;;;;;4382623;32;20421;-70
2021/12/20 15:05:30;;;;;;;;;;;;;;;;;;4392848;32;19978;-71
2021/12/20 15:07:56;;;;;;;;;;;;;;;;;;4378870;32;20424;-72
2021/12/20 15:10:23;;;;;;;;;;;;;;;;;;4378527;32;20037;-72
2021/12/20 15:12:49;;;;;;;;;;;;;;;;;;4373213;32;20448;-71
2021/12/20 15:15:16;;;;;;;;;;;;;;;;;;4360370;32;19980;-67
2021/12/20 15:17:42;;;;;;;;;;;;;;;;;;4367359;32;19993;-73
2021/12/20 15:20:10;;;;;;;;;;;;;;;;;;4392376;32;19986;-71
2021/12/20 15:22:37;;;;;;;;;;;;;;;;;;4389346;32;19985;-70